Time;durP1;ratioP1;P1;durP2;ratioP2;P2;SDS_P1;SDS_P2;PMS_P1;PMS_P2;Temp;Humidity;BMP_temperature;BMP_pressure;BME280_temperature;BME280_humidity;BME280_pressure;Samples;Min_cycle;Max_cycle;Signal;HPM_P1;HPM_P2
2022/07/10 00:00:36;;;;;;;8.63;1.77;;;13.80;99.90;;;;;;5044151;28;20124;-76
2022/07/10 00:03:02;;;;;;;9.23;1.85;;;13.70;99.90;;;;;;5024889;28;20045;-75
2022/07/10 00:05:28;;;;;;;9.82;2.03;;;13.70;99.90;;;;;;5036493;28;20079;-75
2022/07/10 00:07:54;;;;;;;11.07;2.00;;;13.60;99.90;;;;;;5023252;28;20566;-77
2022/07/10 00:10:20;;;;;;;8.93;1.95;;;13.50;99.90;;;;;;5044758;28;20045;-76
2022/07/10 00:12:48;;;;;;;8.60;1.70;;;13.50;99.90;;;;;;5030595;28;20050;-76
2022/07/10 00:15:14;;;;;;;8.68;1.73;;;13.50;99.90;;;;;;5028452;28;20111;-76
2022/07/10 00:17:40;;;;;;;6.80;1.73;;;13.50;99.90;;;;;;5041724;28;20392;-76
2022/07/10 00:20:06;;;;;;;8.73;2.00;;;13.40;99.90;;;;;;5042202;28;20037;-75
2022/07/10 00:22:37;;;;;;;8.48;1.70;;;13.40;99.90;;;;;;5034535;28;20058;-76
2022/07/10 00:25:04;;;;;;;7.13;1.77;;;13.40;99.90;;;;;;5021753;28;20099;-76
2022/07/10 00:27:30;;;;;;;6.40;1.70;;;13.30;99.90;;;;;;5055205;28;20056;-77
2022/07/10 00:29:56;;;;;;;6.60;1.70;;;13.30;99.90;;;;;;5039926;28;20057;-77
2022/07/10 00:32:23;;;;;;;7.28;1.90;;;13.30;99.90;;;;;;5035993;28;20171;-75
2022/07/10 00:34:49;;;;;;;7.35;1.73;;;13.30;99.90;;;;;;5048691;28;20131;-76
2022/07/10 00:37:15;;;;;;;6.15;1.60;;;13.40;99.90;;;;;;5040274;28;20442;-76
2022/07/10 00:39:40;;;;;;;8.30;1.85;;;13.30;99.90;;;;;;5055159;28;20051;-76
2022/07/10 00:42:14;;;;;;;7.72;1.75;;;13.30;99.90;;;;;;5034210;28;20041;-77
2022/07/10 00:44:41;;;;;;;9.32;1.75;;;13.30;99.90;;;;;;5028633;28;20045;-75
2022/07/10 00:47:08;;;;;;;10.25;1.90;;;13.20;99.90;;;;;;5054321;28;20392;-76
2022/07/10 00:49:35;;;;;;;6.28;1.58;;;13.20;99.90;;;;;;5034995;28;20084;-76
2022/07/10 00:52:05;;;;;;;7.50;1.60;;;13.20;99.90;;;;;;5026562;28;20125;-76
2022/07/10 00:54:32;;;;;;;9.07;1.80;;;13.10;99.90;;;;;;5034931;28;20052;-76
2022/07/10 00:56:58;;;;;;;8.52;1.67;;;13.00;99.90;;;;;;5034472;28;20370;-75
2022/07/10 00:59:25;;;;;;;8.85;1.80;;;13.00;99.90;;;;;;5033770;28;20404;-75
2022/07/10 01:01:51;;;;;;;6.18;1.50;;;12.90;99.90;;;;;;5034705;28;20048;-76
2022/07/10 01:04:18;;;;;;;8.27;1.90;;;12.90;99.90;;;;;;5034611;28;20112;-75
2022/07/10 01:06:43;;;;;;;9.48;1.80;;;12.90;99.90;;;;;;5034191;28;20128;-75
2022/07/10 01:09:09;;;;;;;8.02;1.88;;;12.90;99.90;;;;;;5033508;28;20137;-75
2022/07/10 01:11:37;;;;;;;7.97;1.85;;;12.90;99.90;;;;;;5034519;28;20140;-76
2022/07/10 01:14:04;;;;;;;8.80;2.17;;;12.90;99.90;;;;;;5039247;28;20392;-75
2022/07/10 01:16:30;;;;;;;9.57;1.80;;;12.80;99.90;;;;;;5043547;28;20053;-75
2022/07/10 01:18:57;;;;;;;7.05;1.60;;;12.80;99.90;;;;;;5037826;28;20048;-76
2022/07/10 01:21:30;;;;;;;8.65;1.88;;;12.80;99.90;;;;;;5038975;28;20455;-75
2022/07/10 01:23:57;;;;;;;6.97;1.60;;;12.80;99.90;;;;;;5021807;28;20053;-76
2022/07/10 01:26:23;;;;;;;11.43;2.00;;;12.80;99.90;;;;;;5036546;28;20049;-75
2022/07/10 01:28:53;;;;;;;7.75;1.95;;;12.80;99.90;;;;;;5031935;28;20087;-75
2022/07/10 01:31:28;;;;;;;8.75;2.10;;;12.70;99.90;;;;;;5042916;28;20052;-75
2022/07/10 01:33:55;;;;;;;10.80;2.00;;;12.70;99.90;;;;;;5029028;28;20049;-75
2022/07/10 01:36:24;;;;;;;9.75;2.10;;;12.70;99.90;;;;;;5033800;28;20091;-74
2022/07/10 01:38:54;;;;;;;8.35;2.03;;;12.60;99.90;;;;;;5034013;28;20056;-75
2022/07/10 01:41:20;;;;;;;11.52;1.98;;;12.70;99.90;;;;;;5024028;28;20060;-75
2022/07/10 01:43:47;;;;;;;9.63;2.00;;;12.70;99.90;;;;;;5040074;28;20626;-75
2022/07/10 01:46:13;;;;;;;9.45;1.98;;;12.70;99.90;;;;;;5021474;28;20052;-75
2022/07/10 01:48:39;;;;;;;7.70;1.90;;;12.80;99.90;;;;;;5053327;28;20052;-76
2022/07/10 01:51:06;;;;;;;11.15;2.05;;;12.80;99.90;;;;;;5037189;28;20096;-76
2022/07/10 01:53:32;;;;;;;9.57;2.00;;;12.80;99.90;;;;;;5033265;28;20037;-75
2022/07/10 01:56:00;;;;;;;11.85;2.35;;;12.80;99.90;;;;;;5031052;28;20095;-75
2022/07/10 01:58:26;;;;;;;9.02;1.88;;;12.80;99.90;;;;;;5039462;28;20088;-77
2022/07/10 02:00:51;;;;;;;7.95;2.10;;;12.70;99.90;;;;;;5043009;28;20096;-75
2022/07/10 02:06:01;;;;;;;9.20;1.98;;;12.70;99.90;;;;;;5041746;28;20051;-74
2022/07/10 02:08:27;;;;;;;10.25;2.20;;;12.70;99.90;;;;;;5016365;28;20045;-75
2022/07/10 02:10:53;;;;;;;9.90;1.90;;;12.70;99.90;;;;;;5024210;28;20053;-75
2022/07/10 02:13:20;;;;;;;8.07;2.20;;;12.70;99.90;;;;;;5046028;28;20053;-75
2022/07/10 02:15:50;;;;;;;9.98;1.90;;;12.70;99.90;;;;;;5016951;28;20050;-76
2022/07/10 02:18:15;;;;;;;10.10;1.92;;;12.70;99.90;;;;;;5031832;28;20541;-75
2022/07/10 02:20:41;;;;;;;8.70;1.70;;;12.60;99.90;;;;;;5044171;28;20054;-76
2022/07/10 02:23:07;;;;;;;8.60;2.00;;;12.70;99.90;;;;;;5030036;28;20053;-76
2022/07/10 02:25:34;;;;;;;10.90;2.10;;;12.60;99.90;;;;;;5016740;28;20077;-74
2022/07/10 02:28:00;;;;;;;7.75;1.70;;;12.60;99.90;;;;;;5028705;28;20085;-75
2022/07/10 02:30:25;;;;;;;10.77;2.13;;;12.60;99.90;;;;;;5052809;28;20111;-76
2022/07/10 02:32:51;;;;;;;9.88;2.17;;;12.60;99.90;;;;;;5042490;28;20424;-76
2022/07/10 02:35:17;;;;;;;11.02;2.25;;;12.60;99.90;;;;;;5032827;28;20477;-74
2022/07/10 02:37:43;;;;;;;8.02;2.00;;;12.50;99.90;;;;;;5034913;28;20480;-76
2022/07/10 02:40:09;;;;;;;9.77;2.00;;;12.50;99.90;;;;;;5033394;28;20140;-77
2022/07/10 02:42:35;;;;;;;9.73;1.90;;;12.60;99.90;;;;;;5014269;28;20107;-75
2022/07/10 02:45:00;;;;;;;10.13;1.95;;;12.50;99.90;;;;;;5037977;28;20041;-74
2022/07/10 02:47:26;;;;;;;9.88;2.08;;;12.50;99.90;;;;;;5053462;28;20045;-76
2022/07/10 02:49:52;;;;;;;9.15;2.08;;;12.50;99.90;;;;;;5037309;28;20437;-75
2022/07/10 02:52:17;;;;;;;9.73;2.08;;;12.50;99.90;;;;;;5048324;28;20503;-76
2022/07/10 02:54:43;;;;;;;12.70;2.13;;;12.40;99.90;;;;;;5053365;28;20126;-76
2022/07/10 02:57:09;;;;;;;10.55;2.13;;;12.40;99.90;;;;;;5051456;28;20060;-77
2022/07/10 02:59:34;;;;;;;9.80;1.80;;;12.40;99.90;;;;;;5030082;28;20041;-76
2022/07/10 03:02:00;;;;;;;9.60;2.00;;;12.40;99.90;;;;;;5044393;28;20098;-77
2022/07/10 03:04:27;;;;;;;8.10;2.08;;;12.40;99.90;;;;;;5053203;28;20063;-75
2022/07/10 03:06:53;;;;;;;9.48;2.00;;;12.40;99.90;;;;;;5027173;28;20128;-75
2022/07/10 03:09:19;;;;;;;9.50;2.10;;;12.40;99.90;;;;;;5037011;28;20049;-75
2022/07/10 03:11:45;;;;;;;9.80;2.17;;;12.40;99.90;;;;;;5053224;28;20124;-75
2022/07/10 03:14:10;;;;;;;7.60;2.00;;;12.40;99.90;;;;;;5050978;28;20051;-75
2022/07/10 03:16:36;;;;;;;10.60;2.13;;;12.30;99.90;;;;;;5038700;28;20041;-74
2022/07/10 03:19:02;;;;;;;9.85;2.20;;;12.40;99.90;;;;;;5042584;28;20125;-79
2022/07/10 03:21:30;;;;;;;6.72;1.73;;;12.30;99.90;;;;;;5031413;28;20064;-76
2022/07/10 03:23:55;;;;;;;12.10;1.92;;;12.30;99.90;;;;;;5040727;28;20055;-75
2022/07/10 03:26:21;;;;;;;7.63;1.88;;;12.30;99.90;;;;;;5051881;28;20128;-76
2022/07/10 03:28:47;;;;;;;9.27;2.00;;;12.30;99.90;;;;;;5052221;28;20045;-76
2022/07/10 03:31:12;;;;;;;8.60;1.90;;;12.40;99.90;;;;;;5053009;28;20037;-76
2022/07/10 03:33:39;;;;;;;8.55;1.90;;;12.30;99.90;;;;;;5052481;28;20480;-77
2022/07/10 03:36:05;;;;;;;8.38;1.70;;;12.30;99.90;;;;;;5041226;28;20060;-78
2022/07/10 03:38:32;;;;;;;8.50;1.83;;;12.30;99.90;;;;;;5031658;28;20122;-76
2022/07/10 03:40:57;;;;;;;9.30;1.85;;;12.30;99.90;;;;;;5031887;28;20111;-76
2022/07/10 03:43:24;;;;;;;9.73;1.98;;;12.30;99.90;;;;;;5030910;28;20053;-76
2022/07/10 03:45:50;;;;;;;8.45;1.80;;;12.30;99.90;;;;;;5032405;28;20132;-76
2022/07/10 03:48:16;;;;;;;7.78;1.90;;;12.20;99.90;;;;;;5041846;28;20080;-77
2022/07/10 03:50:42;;;;;;;8.10;1.90;;;12.20;99.90;;;;;;5031841;28;20096;-76
2022/07/10 03:53:08;;;;;;;10.93;2.08;;;12.20;99.90;;;;;;5041448;28;20045;-77
2022/07/10 03:55:33;;;;;;;8.40;1.90;;;12.20;99.90;;;;;;5048774;28;20052;-77
2022/07/10 03:58:02;;;;;;;8.57;1.67;;;12.20;99.90;;;;;;5049996;28;20064;-77
2022/07/10 04:00:32;;;;;;;10.68;1.95;;;12.20;99.90;;;;;;5036522;28;20057;-77
2022/07/10 04:03:03;;;;;;;9.85;1.90;;;12.20;99.90;;;;;;5038460;28;20503;-78
2022/07/10 04:05:29;;;;;;;9.60;1.75;;;12.20;99.90;;;;;;5051392;28;20492;-77
2022/07/10 04:07:56;;;;;;;8.93;1.90;;;12.30;99.90;;;;;;5047844;28;20584;-78
2022/07/10 04:10:23;;;;;;;10.07;2.15;;;12.30;99.90;;;;;;5031583;28;20049;-77
2022/07/10 04:12:49;;;;;;;12.50;2.08;;;12.40;99.90;;;;;;5030377;28;20042;-78
2022/07/10 04:15:15;;;;;;;7.68;1.73;;;12.40;99.90;;;;;;5031444;28;20061;-77
2022/07/10 04:17:41;;;;;;;8.60;1.70;;;12.50;99.90;;;;;;5028638;28;20049;-77
2022/07/10 04:20:08;;;;;;;8.85;1.80;;;12.60;99.90;;;;;;5031614;28;20400;-76
2022/07/10 04:22:33;;;;;;;12.50;2.20;;;12.70;99.90;;;;;;5031744;28;20523;-77
2022/07/10 04:24:59;;;;;;;12.77;1.98;;;12.80;99.90;;;;;;5037180;28;20045;-77
2022/07/10 04:27:25;;;;;;;8.75;1.90;;;12.90;99.90;;;;;;5039264;28;20050;-77
2022/07/10 04:29:51;;;;;;;10.00;1.92;;;12.90;99.90;;;;;;5032421;28;20048;-77
2022/07/10 04:32:17;;;;;;;9.10;1.80;;;13.00;99.90;;;;;;5032083;28;20042;-76
2022/07/10 04:34:42;;;;;;;9.43;1.55;;;13.10;99.90;;;;;;5030914;28;20081;-77
2022/07/10 04:37:08;;;;;;;10.48;2.00;;;13.10;99.90;;;;;;5037629;28;20500;-77
2022/07/10 04:39:35;;;;;;;8.85;1.80;;;13.20;99.90;;;;;;5025847;28;20049;-75
2022/07/10 04:42:03;;;;;;;9.23;1.90;;;13.20;99.90;;;;;;5050857;28;20053;-77
2022/07/10 04:44:29;;;;;;;10.02;1.90;;;13.20;99.90;;;;;;5037261;28;20053;-76
2022/07/10 04:46:54;;;;;;;9.40;1.90;;;13.30;99.90;;;;;;5032253;28;20049;-77
2022/07/10 04:49:20;;;;;;;9.73;1.95;;;13.30;99.90;;;;;;5037591;28;20483;-76
2022/07/10 04:51:46;;;;;;;10.25;1.80;;;13.30;99.90;;;;;;5039154;28;20129;-78
2022/07/10 04:54:11;;;;;;;11.07;2.00;;;13.40;99.90;;;;;;5035564;28;20056;-78
2022/07/10 04:56:37;;;;;;;9.80;1.70;;;13.40;99.90;;;;;;5050520;28;20052;-77
2022/07/10 04:59:03;;;;;;;9.05;1.88;;;13.40;99.90;;;;;;5036824;28;20115;-76
2022/07/10 05:01:29;;;;;;;11.63;1.90;;;13.50;99.90;;;;;;5043263;28;20416;-77
2022/07/10 05:03:55;;;;;;;9.85;1.92;;;13.50;99.90;;;;;;5047554;28;20080;-76
2022/07/10 05:06:20;;;;;;;11.30;1.98;;;13.50;99.90;;;;;;5034875;28;20053;-76
2022/07/10 05:08:46;;;;;;;10.18;2.03;;;13.50;99.90;;;;;;5035281;28;20496;-77
2022/07/10 05:11:12;;;;;;;10.35;2.00;;;13.60;99.90;;;;;;5034029;28;20053;-76
2022/07/10 05:13:38;;;;;;;8.27;1.75;;;13.60;99.90;;;;;;5034149;28;20049;-78
2022/07/10 05:16:07;;;;;;;7.35;1.50;;;13.60;99.90;;;;;;5038684;28;21482;-76
2022/07/10 05:18:32;;;;;;;10.63;2.05;;;13.70;99.90;;;;;;5043165;28;20476;-76
2022/07/10 05:20:58;;;;;;;9.10;2.03;;;13.70;99.90;;;;;;5018370;28;20054;-75
2022/07/10 05:23:24;;;;;;;10.75;2.15;;;13.80;99.90;;;;;;5043280;28;20142;-76
2022/07/10 05:25:49;;;;;;;9.90;1.73;;;13.80;99.90;;;;;;5031041;28;20052;-76
2022/07/10 05:28:15;;;;;;;9.73;1.92;;;13.80;99.90;;;;;;5042301;28;20041;-76
2022/07/10 05:30:41;;;;;;;9.90;1.85;;;13.90;99.90;;;;;;5052182;28;20051;-75
2022/07/10 05:33:07;;;;;;;9.15;2.05;;;13.90;99.90;;;;;;5033061;28;20088;-76
2022/07/10 05:35:33;;;;;;;7.50;1.63;;;14.00;99.90;;;;;;5042161;28;20073;-75
2022/07/10 05:37:59;;;;;;;10.13;1.63;;;14.10;99.90;;;;;;5042737;28;20127;-74
2022/07/10 05:40:25;;;;;;;9.73;2.03;;;14.10;99.90;;;;;;5032623;28;20054;-74
2022/07/10 05:42:51;;;;;;;9.10;1.83;;;14.20;99.90;;;;;;5039899;28;20058;-76
2022/07/10 05:45:17;;;;;;;9.35;1.73;;;14.20;99.90;;;;;;5040747;28;20124;-76
2022/07/10 05:47:44;;;;;;;10.75;2.00;;;14.30;99.90;;;;;;5034230;28;20044;-75
2022/07/10 05:50:11;;;;;;;9.30;1.65;;;14.30;99.90;;;;;;5047934;28;20387;-75
2022/07/10 05:52:37;;;;;;;9.02;1.90;;;14.40;99.90;;;;;;5052396;28;20079;-75
2022/07/10 05:55:03;;;;;;;10.15;2.00;;;14.40;99.90;;;;;;5048597;28;20050;-76
2022/07/10 05:57:31;;;;;;;11.65;1.98;;;14.40;99.90;;;;;;5036052;28;20049;-76
2022/07/10 05:59:57;;;;;;;8.75;1.77;;;14.50;99.90;;;;;;5043233;28;20098;-76
2022/07/10 06:02:23;;;;;;;9.70;1.85;;;14.50;99.90;;;;;;5045896;28;20160;-77
2022/07/10 06:04:49;;;;;;;9.77;1.90;;;14.60;99.90;;;;;;5033631;28;20057;-76
2022/07/10 06:07:15;;;;;;;11.57;2.03;;;14.60;99.90;;;;;;5047483;28;20049;-74
2022/07/10 06:09:42;;;;;;;8.45;1.75;;;14.70;99.90;;;;;;5037941;28;20599;-75
2022/07/10 06:12:08;;;;;;;6.97;1.58;;;14.60;99.90;;;;;;5045211;28;20049;-77
2022/07/10 06:14:34;;;;;;;9.07;1.83;;;14.60;99.90;;;;;;5041798;28;20056;-77
2022/07/10 06:17:00;;;;;;;8.45;1.70;;;14.70;99.90;;;;;;5042375;28;20107;-76
2022/07/10 06:19:26;;;;;;;9.20;2.00;;;14.70;99.90;;;;;;5006372;28;20053;-75
2022/07/10 06:22:30;;;;;;;9.75;2.17;;;14.70;99.90;;;;;;5043532;28;20169;-75
2022/07/10 06:24:37;;;;;;;9.10;2.03;;;14.80;99.90;;;;;;5041153;28;20045;-76
2022/07/10 06:27:04;;;;;;;7.93;1.90;;;14.90;99.90;;;;;;5046529;28;20053;-75
2022/07/10 06:29:29;;;;;;;12.60;2.63;;;15.00;99.90;;;;;;5036700;28;20369;-75
2022/07/10 06:31:55;;;;;;;11.23;2.00;;;15.10;99.90;;;;;;5045814;28;20132;-77
2022/07/10 06:34:21;;;;;;;10.02;2.05;;;15.20;99.90;;;;;;5039379;28;20049;-76
2022/07/10 06:36:47;;;;;;;12.60;2.00;;;15.20;99.90;;;;;;5037596;28;20081;-75
2022/07/10 06:39:12;;;;;;;9.63;2.10;;;15.40;99.90;;;;;;5030258;28;20063;-76
2022/07/10 06:41:38;;;;;;;9.13;2.00;;;15.40;99.90;;;;;;5037635;28;20466;-76
2022/07/10 06:44:04;;;;;;;10.40;2.15;;;15.50;99.90;;;;;;5004918;28;20131;-77
2022/07/10 06:46:31;;;;;;;10.85;2.20;;;15.60;99.90;;;;;;5037593;28;20469;-75
2022/07/10 06:48:58;;;;;;;10.73;2.10;;;15.70;99.90;;;;;;5055637;28;20044;-77
2022/07/10 06:51:23;;;;;;;10.15;2.08;;;15.80;99.90;;;;;;5024955;28;20136;-79
2022/07/10 06:53:50;;;;;;;8.32;2.00;;;15.80;99.90;;;;;;5053238;28;20124;-76
2022/07/10 06:56:16;;;;;;;11.77;2.33;;;15.80;99.90;;;;;;5045243;28;20049;-76
2022/07/10 06:58:41;;;;;;;8.93;1.73;;;15.80;99.90;;;;;;5038067;28;20041;-76
2022/07/10 07:01:07;;;;;;;10.10;2.00;;;15.70;99.90;;;;;;4944500;28;20511;-75
2022/07/10 07:03:33;;;;;;;10.27;2.10;;;15.70;99.90;;;;;;5035577;28;20092;-76
2022/07/10 07:05:59;;;;;;;12.07;2.50;;;15.60;99.90;;;;;;5033936;28;20048;-77
2022/07/10 07:08:25;;;;;;;9.02;2.10;;;15.60;99.90;;;;;;5055979;28;20049;-80
2022/07/10 07:10:50;;;;;;;10.88;2.40;;;15.50;99.90;;;;;;5007881;28;20049;-77
2022/07/10 07:13:16;;;;;;;9.15;2.13;;;15.50;99.90;;;;;;5026461;28;20057;-77
2022/07/10 07:15:46;;;;;;;14.00;2.45;;;15.40;99.90;;;;;;5026046;28;20050;-78
2022/07/10 07:18:15;;;;;;;11.48;2.40;;;15.40;99.90;;;;;;5024947;28;20053;-78
2022/07/10 07:23:26;;;;;;;11.45;2.17;;;15.20;99.90;;;;;;5026385;28;20161;-78
2022/07/10 07:25:52;;;;;;;13.10;2.22;;;15.30;99.90;;;;;;5023463;28;20124;-76
2022/07/10 07:28:19;;;;;;;11.75;2.30;;;15.40;99.90;;;;;;5002219;28;20057;-77
2022/07/10 07:30:47;;;;;;;9.57;2.25;;;15.50;99.90;;;;;;5029262;28;20124;-78
2022/07/10 07:33:13;;;;;;;8.70;2.00;;;15.60;99.90;;;;;;5020754;28;20455;-76
2022/07/10 07:35:39;;;;;;;11.70;2.10;;;15.70;99.90;;;;;;5029025;28;20053;-76
2022/07/10 07:38:08;;;;;;;13.27;2.70;;;15.80;99.90;;;;;;5027988;28;20057;-77
2022/07/10 07:40:33;;;;;;;8.30;2.30;;;15.70;99.90;;;;;;5027698;28;20050;-77
2022/07/10 07:42:59;;;;;;;9.50;2.30;;;15.80;99.90;;;;;;5024425;28;20045;-81
2022/07/10 07:45:26;;;;;;;11.27;2.10;;;15.90;99.90;;;;;;5027514;28;20057;-78
2022/07/10 07:47:56;;;;;;;8.32;2.10;;;16.10;99.90;;;;;;5027319;28;20041;-78
2022/07/10 07:50:28;;;;;;;11.07;2.20;;;16.20;99.90;;;;;;5009619;28;20096;-81
2022/07/10 07:52:54;;;;;;;6.82;1.90;;;16.30;99.90;;;;;;5004107;28;20073;-76
2022/07/10 07:55:22;;;;;;;9.45;2.10;;;16.50;99.90;;;;;;5009179;28;20057;-76
2022/07/10 07:57:50;;;;;;;9.77;2.00;;;16.70;99.90;;;;;;4991754;28;20073;-81
2022/07/10 08:00:19;;;;;;;10.82;2.00;;;17.00;99.90;;;;;;5033441;28;20054;-73
2022/07/10 08:02:45;;;;;;;8.07;1.73;;;17.20;99.90;;;;;;5004868;28;20064;-76
2022/07/10 08:05:11;;;;;;;9.63;2.00;;;17.50;99.90;;;;;;5028666;28;20053;-77
2022/07/10 08:07:38;;;;;;;8.38;1.80;;;17.70;99.90;;;;;;5029061;28;20480;-75
2022/07/10 08:10:05;;;;;;;7.75;1.90;;;17.60;99.90;;;;;;5026790;28;20062;-75
2022/07/10 08:12:31;;;;;;;10.57;2.03;;;17.80;99.90;;;;;;5025696;28;20056;-74
2022/07/10 08:14:58;;;;;;;6.75;1.50;;;18.00;99.90;;;;;;5023768;28;20049;-76
2022/07/10 08:17:24;;;;;;;7.32;1.70;;;18.10;99.90;;;;;;5010898;28;20060;-75
2022/07/10 08:19:50;;;;;;;9.55;1.77;;;18.10;99.90;;;;;;5019786;28;20141;-84
2022/07/10 08:22:16;;;;;;;8.52;1.88;;;18.00;99.90;;;;;;5024467;28;20132;-75
2022/07/10 08:24:41;;;;;;;7.90;1.52;;;17.80;99.90;;;;;;5027057;28;20080;-76
2022/07/10 08:27:08;;;;;;;7.25;1.58;;;17.50;99.90;;;;;;5022755;28;20075;-77
2022/07/10 08:29:33;;;;;;;4.82;1.30;;;17.20;99.90;;;;;;5021909;28;20041;-80
2022/07/10 08:31:59;;;;;;;5.10;1.20;;;17.00;99.90;;;;;;5022117;28;20045;-74
2022/07/10 08:34:27;;;;;;;7.38;1.42;;;16.80;99.90;;;;;;5023332;28;20049;-77
2022/07/10 08:36:53;;;;;;;6.40;1.40;;;16.60;99.90;;;;;;5024567;28;20049;-75
2022/07/10 08:39:22;;;;;;;5.80;1.40;;;16.50;99.90;;;;;;5026693;28;20096;-75
2022/07/10 08:41:51;;;;;;;5.78;1.25;;;16.60;99.90;;;;;;4997550;28;20041;-78
2022/07/10 08:44:20;;;;;;;6.75;1.20;;;16.60;99.90;;;;;;5025304;28;20697;-75
2022/07/10 08:46:45;;;;;;;5.30;1.20;;;16.60;99.90;;;;;;5025715;28;20049;-76
2022/07/10 08:49:13;;;;;;;5.20;1.10;;;16.70;99.90;;;;;;5021961;28;20048;-74
2022/07/10 08:51:59;;;;;;;6.75;1.30;;;16.70;99.90;;;;;;5020522;28;20049;-78
2022/07/10 08:54:27;;;;;;;5.68;1.20;;;16.80;99.90;;;;;;5023862;28;20045;-74
2022/07/10 08:56:53;;;;;;;5.15;1.20;;;16.80;99.90;;;;;;5025000;28;20068;-76
2022/07/10 08:59:20;;;;;;;7.55;1.45;;;16.90;99.90;;;;;;5026281;28;20112;-74
2022/07/10 09:01:48;;;;;;;5.47;1.30;;;16.90;99.90;;;;;;5025845;28;20550;-73
2022/07/10 09:04:21;;;;;;;5.95;1.30;;;16.90;99.90;;;;;;5030450;28;20054;-75
2022/07/10 09:06:47;;;;;;;5.38;1.30;;;16.90;99.90;;;;;;5030219;28;20143;-74
2022/07/10 09:09:13;;;;;;;6.47;1.30;;;16.90;99.90;;;;;;5030576;28;20049;-73
2022/07/10 09:11:43;;;;;;;5.35;1.20;;;17.00;99.90;;;;;;5029141;28;20072;-72
2022/07/10 09:14:15;;;;;;;3.88;1.08;;;17.10;99.90;;;;;;5025391;28;20121;-73
2022/07/10 09:16:43;;;;;;;6.53;1.20;;;17.10;99.90;;;;;;5029140;28;20049;-75
2022/07/10 09:19:29;;;;;;;5.15;1.10;;;17.10;99.90;;;;;;5026496;28;20049;-72
2022/07/10 09:22:05;;;;;;;8.18;1.40;;;17.10;99.90;;;;;;5030817;28;20061;-72
2022/07/10 09:24:45;;;;;;;4.32;1.05;;;17.00;99.90;;;;;;5012264;28;20088;-74
2022/07/10 09:27:14;;;;;;;6.57;1.40;;;17.00;99.90;;;;;;5029630;28;20045;-73
2022/07/10 09:29:51;;;;;;;6.32;1.23;;;16.90;99.90;;;;;;5027489;28;20045;-73
2022/07/10 09:32:17;;;;;;;5.25;1.20;;;16.80;99.90;;;;;;5026346;28;20045;-73
2022/07/10 09:34:45;;;;;;;6.90;1.30;;;16.70;99.90;;;;;;5027436;28;20053;-75
2022/07/10 09:37:26;;;;;;;4.50;1.23;;;16.70;99.90;;;;;;5025820;28;20045;-74
2022/07/10 09:40:00;;;;;;;5.33;1.17;;;16.80;99.90;;;;;;5025253;28;20037;-74
2022/07/10 09:42:33;;;;;;;5.65;1.30;;;16.90;99.90;;;;;;5025640;28;20395;-74
2022/07/10 09:45:17;;;;;;;5.50;1.10;;;16.90;99.90;;;;;;5009913;28;20045;-74
2022/07/10 09:48:02;;;;;;;5.93;1.30;;;16.90;99.90;;;;;;5044720;28;20519;-77
2022/07/10 09:50:33;;;;;;;5.13;1.38;;;17.00;99.90;;;;;;5028303;28;20057;-73
2022/07/10 09:53:07;;;;;;;4.38;1.10;;;17.00;99.90;;;;;;5028021;28;20127;-75
2022/07/10 09:55:37;;;;;;;5.25;1.27;;;17.10;99.90;;;;;;5029839;28;20077;-73
2022/07/10 09:58:08;;;;;;;5.53;1.10;;;17.20;99.90;;;;;;5028066;28;20056;-75
2022/07/10 10:00:36;;;;;;;4.65;1.00;;;17.30;99.90;;;;;;5026398;28;20073;-73
2022/07/10 10:03:07;;;;;;;3.72;0.90;;;17.50;99.90;;;;;;5028933;28;20056;-75
2022/07/10 10:05:36;;;;;;;3.97;1.05;;;17.60;99.90;;;;;;5026559;28;20500;-75
2022/07/10 10:08:24;;;;;;;3.42;1.00;;;17.70;99.90;;;;;;5010874;28;21337;-73
2022/07/10 10:10:51;;;;;;;7.05;1.27;;;17.70;99.90;;;;;;5029033;28;20106;-74
2022/07/10 10:13:21;;;;;;;4.05;1.00;;;17.70;99.90;;;;;;5026943;28;20601;-75
2022/07/10 10:15:48;;;;;;;5.53;1.30;;;17.60;99.90;;;;;;5027352;28;20061;-73
2022/07/10 10:18:18;;;;;;;6.00;1.27;;;17.60;99.90;;;;;;5026762;28;20463;-73
2022/07/10 10:20:46;;;;;;;5.72;1.30;;;17.50;99.90;;;;;;5029685;28;20068;-74
2022/07/10 10:23:22;;;;;;;4.25;1.10;;;17.50;99.90;;;;;;5027029;28;20079;-74
2022/07/10 10:25:56;;;;;;;6.18;1.30;;;17.40;99.90;;;;;;5027746;28;20049;-73
2022/07/10 10:28:24;;;;;;;4.60;1.17;;;17.40;99.90;;;;;;5026651;28;20049;-73
2022/07/10 10:30:54;;;;;;;4.03;1.10;;;17.40;99.90;;;;;;5028746;28;20528;-73
2022/07/10 10:33:32;;;;;;;4.63;1.10;;;17.30;99.90;;;;;;5029781;28;20516;-72
2022/07/10 10:36:03;;;;;;;3.58;0.98;;;17.30;99.90;;;;;;5029495;28;20128;-71
2022/07/10 10:38:51;;;;;;;4.75;0.90;;;17.10;99.90;;;;;;5028719;28;20511;-72
2022/07/10 10:41:41;;;;;;;2.67;0.98;;;17.00;99.90;;;;;;5027408;28;20050;-75
2022/07/10 10:44:13;;;;;;;2.63;0.95;;;17.00;99.90;;;;;;5018966;28;20508;-71
2022/07/10 10:46:50;;;;;;;2.85;0.90;;;17.00;99.90;;;;;;5025791;28;20488;-70
2022/07/10 10:49:21;;;;;;;2.88;1.10;;;17.00;99.90;;;;;;5027803;28;20049;-72
2022/07/10 10:51:59;;;;;;;3.67;1.10;;;17.10;99.90;;;;;;5029407;28;20045;-72
2022/07/10 10:54:26;;;;;;;3.40;1.20;;;17.10;99.90;;;;;;5029252;28;20057;-71
2022/07/10 10:57:11;;;;;;;3.05;1.10;;;17.20;99.90;;;;;;5027612;28;20045;-71
2022/07/10 10:59:51;;;;;;;4.18;1.30;;;17.20;99.90;;;;;;5028465;28;20048;-70
2022/07/10 11:02:32;;;;;;;5.32;1.27;;;17.20;99.90;;;;;;5027417;28;20053;-70
2022/07/10 11:05:14;;;;;;;3.38;1.10;;;17.10;99.90;;;;;;5026033;28;20053;-69
2022/07/10 11:08:00;;;;;;;5.73;1.13;;;17.00;99.90;;;;;;5028378;28;20046;-69
2022/07/10 11:10:39;;;;;;;3.97;1.33;;;16.90;99.90;;;;;;5026797;28;20331;-69
2022/07/10 11:13:16;;;;;;;3.55;1.33;;;17.00;99.90;;;;;;5025321;28;20106;-68
2022/07/10 11:15:52;;;;;;;4.30;1.30;;;17.10;99.90;;;;;;5024180;28;20555;-69
2022/07/10 11:18:28;;;;;;;5.95;1.35;;;17.20;99.90;;;;;;5027238;28;20086;-70
2022/07/10 11:20:54;;;;;;;5.20;1.42;;;17.20;99.90;;;;;;5028250;28;20080;-70
2022/07/10 11:24:02;;;;;;;5.70;1.60;;;17.10;99.90;;;;;;5025160;28;20480;-70
2022/07/10 11:26:46;;;;;;;7.25;1.73;;;17.10;99.90;;;;;;5016798;28;20060;-70
2022/07/10 11:29:12;;;;;;;5.00;1.60;;;17.10;99.90;;;;;;5005563;28;20057;-70
2022/07/10 11:31:44;;;;;;;6.15;1.80;;;17.10;99.90;;;;;;5027300;28;20398;-69
2022/07/10 11:34:10;;;;;;;6.20;1.77;;;17.10;99.90;;;;;;5025408;28;20754;-69
2022/07/10 11:36:39;;;;;;;6.90;1.80;;;17.20;99.90;;;;;;5025559;28;20159;-69
2022/07/10 11:39:08;;;;;;;6.93;1.80;;;17.20;99.90;;;;;;5004769;28;20076;-70
2022/07/10 11:41:44;;;;;;;7.75;2.10;;;17.20;99.90;;;;;;5026886;28;20049;-69
2022/07/10 11:44:18;;;;;;;5.80;2.00;;;17.20;99.90;;;;;;5023613;28;20053;-69
2022/07/10 11:46:44;;;;;;;7.20;2.00;;;17.20;99.90;;;;;;5028495;28;20056;-69
2022/07/10 11:49:11;;;;;;;5.57;2.10;;;17.20;99.90;;;;;;5022796;28;20053;-69
2022/07/10 11:51:41;;;;;;;5.63;1.83;;;17.20;99.90;;;;;;5028263;28;20075;-68
2022/07/10 11:54:18;;;;;;;6.15;1.88;;;17.40;99.90;;;;;;5027105;28;20045;-69
2022/07/10 11:56:52;;;;;;;6.68;2.00;;;17.50;99.90;;;;;;5029179;28;20091;-69
2022/07/10 11:59:23;;;;;;;7.57;2.00;;;17.50;99.90;;;;;;5020691;28;20648;-72
2022/07/10 12:01:51;;;;;;;5.72;1.80;;;17.60;99.90;;;;;;5017813;28;20045;-69
2022/07/10 12:04:25;;;;;;;7.25;2.08;;;17.70;99.90;;;;;;5017214;28;20058;-71
2022/07/10 12:06:53;;;;;;;7.68;2.30;;;17.70;99.90;;;;;;5024154;28;20053;-70
2022/07/10 12:09:21;;;;;;;7.30;2.00;;;17.80;99.90;;;;;;5021993;28;20096;-70
2022/07/10 12:12:07;;;;;;;9.07;2.13;;;17.80;99.90;;;;;;5006378;28;20046;-73
2022/07/10 12:14:34;;;;;;;7.05;2.10;;;17.80;99.90;;;;;;5028465;28;20384;-70
2022/07/10 12:17:00;;;;;;;7.05;2.10;;;17.80;99.90;;;;;;5030711;28;20481;-69
2022/07/10 12:19:30;;;;;;;8.13;2.10;;;17.90;99.90;;;;;;5030063;28;20056;-69
2022/07/10 12:21:57;;;;;;;6.03;2.20;;;17.90;99.90;;;;;;5031159;28;20124;-70
2022/07/10 12:24:24;;;;;;;9.45;2.50;;;18.00;99.90;;;;;;5024763;28;20392;-71
2022/07/10 12:26:52;;;;;;;6.22;2.20;;;18.10;99.90;;;;;;5028867;28;20046;-70
2022/07/10 12:29:30;;;;;;;7.00;2.35;;;18.00;99.90;;;;;;5028985;28;20049;-71
2022/07/10 12:32:03;;;;;;;7.88;2.28;;;17.90;99.90;;;;;;5046734;28;20053;-70
2022/07/10 12:34:36;;;;;;;8.50;2.60;;;17.80;99.90;;;;;;5022809;28;20489;-71
2022/07/10 12:37:09;;;;;;;7.03;2.10;;;17.70;99.90;;;;;;5029144;28;20041;-69
2022/07/10 12:39:50;;;;;;;6.10;2.03;;;17.60;99.90;;;;;;5029896;28;20091;-71
2022/07/10 12:42:26;;;;;;;8.68;2.10;;;17.60;99.90;;;;;;5028089;28;20042;-70
2022/07/10 12:44:52;;;;;;;7.10;2.17;;;17.70;99.90;;;;;;5012804;28;20133;-69
2022/07/10 12:47:22;;;;;;;6.55;2.08;;;17.90;99.90;;;;;;5030742;28;20124;-72
2022/07/10 12:49:52;;;;;;;5.72;2.20;;;18.00;99.90;;;;;;5030456;28;20073;-71
2022/07/10 12:52:32;;;;;;;6.80;2.10;;;18.10;99.90;;;;;;5029975;28;20042;-71
2022/07/10 12:55:21;;;;;;;6.90;2.20;;;18.00;99.90;;;;;;5027745;28;20108;-70
2022/07/10 12:58:08;;;;;;;6.38;1.98;;;17.90;99.90;;;;;;5029141;28;20526;-71